sensor_id;sensor_type;location;lat;lon;timestamp;P1;durP1;ratioP1;P2;durP2;ratioP2
43042;SDS011;28667;50.758;6.096;2022-09-03T00:05:14;0.55;;;0.55;;
43042;SDS011;28667;50.758;6.096;2022-09-03T00:11:00;0.40;;;0.40;;
43042;SDS011;28667;50.758;6.096;2022-09-03T00:13:44;0.90;;;0.57;;
43042;SDS011;28667;50.758;6.096;2022-09-03T00:18:45;0.68;;;0.52;;
43042;SDS011;28667;50.758;6.096;2022-09-03T00:21:17;1.00;;;0.77;;
43042;SDS011;28667;50.758;6.096;2022-09-03T00:23:53;0.43;;;0.40;;
43042;SDS011;28667;50.758;6.096;2022-09-03T00:26:24;0.50;;;0.50;;
43042;SDS011;28667;50.758;6.096;2022-09-03T00:28:56;0.50;;;0.50;;
43042;SDS011;28667;50.758;6.096;2022-09-03T00:31:29;0.80;;;0.50;;
43042;SDS011;28667;50.758;6.096;2022-09-03T00:33:58;0.40;;;0.40;;
43042;SDS011;28667;50.758;6.096;2022-09-03T00:36:43;0.40;;;0.40;;
43042;SDS011;28667;50.758;6.096;2022-09-03T00:39:15;0.47;;;0.47;;
43042;SDS011;28667;50.758;6.096;2022-09-03T00:41:51;1.20;;;0.50;;
43042;SDS011;28667;50.758;6.096;2022-09-03T00:44:44;0.50;;;0.50;;
43042;SDS011;28667;50.758;6.096;2022-09-03T00:47:31;0.30;;;0.30;;
43042;SDS011;28667;50.758;6.096;2022-09-03T01:00:50;0.82;;;0.70;;
43042;SDS011;28667;50.758;6.096;2022-09-03T01:03:32;0.82;;;0.77;;
43042;SDS011;28667;50.758;6.096;2022-09-03T01:06:27;0.65;;;0.40;;
43042;SDS011;28667;50.758;6.096;2022-09-03T01:37:08;1.00;;;0.90;;
43042;SDS011;28667;50.758;6.096;2022-09-03T01:50:49;2.15;;;0.95;;
43042;SDS011;28667;50.758;6.096;2022-09-03T01:56:36;1.00;;;0.90;;
43042;SDS011;28667;50.758;6.096;2022-09-03T01:59:29;1.75;;;0.80;;
43042;SDS011;28667;50.758;6.096;2022-09-03T02:02:35;1.42;;;0.80;;
43042;SDS011;28667;50.758;6.096;2022-09-03T02:07:33;0.55;;;0.55;;
43042;SDS011;28667;50.758;6.096;2022-09-03T02:10:02;1.27;;;0.93;;
43042;SDS011;28667;50.758;6.096;2022-09-03T02:12:32;2.08;;;1.27;;
43042;SDS011;28667;50.758;6.096;2022-09-03T02:15:02;2.38;;;1.08;;
43042;SDS011;28667;50.758;6.096;2022-09-03T02:17:34;1.88;;;1.00;;
43042;SDS011;28667;50.758;6.096;2022-09-03T02:20:06;2.45;;;1.10;;
43042;SDS011;28667;50.758;6.096;2022-09-03T02:22:36;1.92;;;0.95;;
43042;SDS011;28667;50.758;6.096;2022-09-03T02:25:04;1.73;;;1.10;;
43042;SDS011;28667;50.758;6.096;2022-09-03T02:27:31;1.38;;;0.90;;
43042;SDS011;28667;50.758;6.096;2022-09-03T02:29:59;3.05;;;1.13;;
43042;SDS011;28667;50.758;6.096;2022-09-03T02:32:25;2.15;;;1.08;;
43042;SDS011;28667;50.758;6.096;2022-09-03T02:34:51;1.25;;;1.15;;
43042;SDS011;28667;50.758;6.096;2022-09-03T02:37:17;1.38;;;0.95;;
43042;SDS011;28667;50.758;6.096;2022-09-03T02:39:44;2.00;;;1.30;;
43042;SDS011;28667;50.758;6.096;2022-09-03T02:42:10;1.40;;;1.05;;
43042;SDS011;28667;50.758;6.096;2022-09-03T02:44:40;1.35;;;0.90;;
43042;SDS011;28667;50.758;6.096;2022-09-03T02:47:09;0.80;;;0.80;;
43042;SDS011;28667;50.758;6.096;2022-09-03T02:49:35;1.38;;;0.98;;
43042;SDS011;28667;50.758;6.096;2022-09-03T02:52:02;0.60;;;0.60;;
43042;SDS011;28667;50.758;6.096;2022-09-03T02:54:30;7.10;;;1.20;;
43042;SDS011;28667;50.758;6.096;2022-09-03T02:57:00;3.20;;;0.80;;
43042;SDS011;28667;50.758;6.096;2022-09-03T02:59:27;0.77;;;0.70;;
43042;SDS011;28667;50.758;6.096;2022-09-03T03:01:53;1.20;;;1.02;;
43042;SDS011;28667;50.758;6.096;2022-09-03T03:04:20;1.98;;;1.00;;
43042;SDS011;28667;50.758;6.096;2022-09-03T03:06:47;2.33;;;0.80;;
43042;SDS011;28667;50.758;6.096;2022-09-03T03:09:16;1.17;;;0.90;;
43042;SDS011;28667;50.758;6.096;2022-09-03T03:11:43;0.73;;;0.65;;
43042;SDS011;28667;50.758;6.096;2022-09-03T03:14:09;0.77;;;0.70;;
43042;SDS011;28667;50.758;6.096;2022-09-03T03:16:35;1.35;;;0.85;;
43042;SDS011;28667;50.758;6.096;2022-09-03T03:19:02;1.23;;;0.82;;
43042;SDS011;28667;50.758;6.096;2022-09-03T03:21:28;1.05;;;0.73;;
43042;SDS011;28667;50.758;6.096;2022-09-03T03:23:55;0.73;;;0.65;;
43042;SDS011;28667;50.758;6.096;2022-09-03T03:26:21;1.00;;;0.60;;
43042;SDS011;28667;50.758;6.096;2022-09-03T03:28:49;1.33;;;0.82;;
43042;SDS011;28667;50.758;6.096;2022-09-03T03:31:21;1.83;;;0.80;;
43042;SDS011;28667;50.758;6.096;2022-09-03T03:33:55;1.35;;;1.00;;
43042;SDS011;28667;50.758;6.096;2022-09-03T03:36:24;0.93;;;0.60;;
43042;SDS011;28667;50.758;6.096;2022-09-03T03:38:55;2.40;;;1.05;;
43042;SDS011;28667;50.758;6.096;2022-09-03T03:41:24;0.90;;;0.73;;
43042;SDS011;28667;50.758;6.096;2022-09-03T03:43:55;1.38;;;0.75;;
43042;SDS011;28667;50.758;6.096;2022-09-03T03:46:24;0.68;;;0.68;;
43042;SDS011;28667;50.758;6.096;2022-09-03T03:48:53;1.58;;;0.90;;
43042;SDS011;28667;50.758;6.096;2022-09-03T03:51:19;0.70;;;0.70;;
43042;SDS011;28667;50.758;6.096;2022-09-03T03:53:46;0.98;;;0.85;;
43042;SDS011;28667;50.758;6.096;2022-09-03T03:56:13;0.60;;;0.60;;
43042;SDS011;28667;50.758;6.096;2022-09-03T03:58:41;1.15;;;0.98;;
43042;SDS011;28667;50.758;6.096;2022-09-03T04:01:29;1.23;;;1.13;;
43042;SDS011;28667;50.758;6.096;2022-09-03T04:03:55;0.98;;;0.98;;
43042;SDS011;28667;50.758;6.096;2022-09-03T04:06:22;1.13;;;0.90;;
43042;SDS011;28667;50.758;6.096;2022-09-03T04:08:50;0.88;;;0.82;;
43042;SDS011;28667;50.758;6.096;2022-09-03T04:11:17;0.93;;;0.90;;
43042;SDS011;28667;50.758;6.096;2022-09-03T04:13:45;1.13;;;0.90;;
43042;SDS011;28667;50.758;6.096;2022-09-03T04:18:39;0.90;;;0.60;;
43042;SDS011;28667;50.758;6.096;2022-09-03T04:21:07;1.70;;;1.00;;
43042;SDS011;28667;50.758;6.096;2022-09-03T04:23:36;2.58;;;1.00;;
43042;SDS011;28667;50.758;6.096;2022-09-03T04:26:04;1.00;;;0.82;;
43042;SDS011;28667;50.758;6.096;2022-09-03T04:28:31;0.88;;;0.70;;
43042;SDS011;28667;50.758;6.096;2022-09-03T04:31:01;1.02;;;0.93;;
43042;SDS011;28667;50.758;6.096;2022-09-03T04:33:33;1.33;;;0.77;;
43042;SDS011;28667;50.758;6.096;2022-09-03T04:38:34;1.13;;;0.90;;
43042;SDS011;28667;50.758;6.096;2022-09-03T04:41:02;0.80;;;0.80;;
43042;SDS011;28667;50.758;6.096;2022-09-03T04:43:29;1.00;;;0.90;;
43042;SDS011;28667;50.758;6.096;2022-09-03T04:45:57;0.80;;;0.70;;
43042;SDS011;28667;50.758;6.096;2022-09-03T04:48:25;1.73;;;0.90;;
43042;SDS011;28667;50.758;6.096;2022-09-03T04:50:53;0.82;;;0.80;;
43042;SDS011;28667;50.758;6.096;2022-09-03T04:53:28;2.08;;;0.93;;
43042;SDS011;28667;50.758;6.096;2022-09-03T04:55:54;0.75;;;0.70;;
43042;SDS011;28667;50.758;6.096;2022-09-03T04:58:20;2.95;;;1.25;;
43042;SDS011;28667;50.758;6.096;2022-09-03T05:00:47;0.60;;;0.60;;
43042;SDS011;28667;50.758;6.096;2022-09-03T05:03:14;3.03;;;0.88;;
43042;SDS011;28667;50.758;6.096;2022-09-03T05:05:40;1.33;;;1.17;;
43042;SDS011;28667;50.758;6.096;2022-09-03T05:08:07;1.10;;;0.95;;
43042;SDS011;28667;50.758;6.096;2022-09-03T05:10:34;1.10;;;1.00;;
43042;SDS011;28667;50.758;6.096;2022-09-03T05:13:01;0.98;;;0.88;;
43042;SDS011;28667;50.758;6.096;2022-09-03T05:15:29;3.92;;;0.80;;
43042;SDS011;28667;50.758;6.096;2022-09-03T05:17:57;0.50;;;0.50;;
43042;SDS011;28667;50.758;6.096;2022-09-03T05:20:26;1.27;;;0.98;;
43042;SDS011;28667;50.758;6.096;2022-09-03T05:23:00;1.10;;;1.00;;
43042;SDS011;28667;50.758;6.096;2022-09-03T05:25:28;5.65;;;0.95;;
43042;SDS011;28667;50.758;6.096;2022-09-03T05:27:57;2.40;;;1.02;;
43042;SDS011;28667;50.758;6.096;2022-09-03T05:30:24;1.30;;;0.90;;
43042;SDS011;28667;50.758;6.096;2022-09-03T05:32:51;1.02;;;0.70;;
43042;SDS011;28667;50.758;6.096;2022-09-03T05:35:17;3.90;;;0.93;;
43042;SDS011;28667;50.758;6.096;2022-09-03T05:37:43;1.70;;;0.90;;
43042;SDS011;28667;50.758;6.096;2022-09-03T05:40:09;1.63;;;1.02;;
43042;SDS011;28667;50.758;6.096;2022-09-03T05:42:39;1.80;;;1.00;;
43042;SDS011;28667;50.758;6.096;2022-09-03T05:45:08;2.05;;;0.90;;
43042;SDS011;28667;50.758;6.096;2022-09-03T05:47:38;1.15;;;0.65;;
43042;SDS011;28667;50.758;6.096;2022-09-03T05:50:06;0.68;;;0.68;;
43042;SDS011;28667;50.758;6.096;2022-09-03T05:52:35;0.63;;;0.63;;
43042;SDS011;28667;50.758;6.096;2022-09-03T05:55:02;1.25;;;0.65;;
43042;SDS011;28667;50.758;6.096;2022-09-03T05:57:29;0.70;;;0.63;;
43042;SDS011;28667;50.758;6.096;2022-09-03T05:59:55;0.63;;;0.60;;
43042;SDS011;28667;50.758;6.096;2022-09-03T06:02:22;1.05;;;0.80;;
43042;SDS011;28667;50.758;6.096;2022-09-03T06:04:48;1.55;;;0.90;;
43042;SDS011;28667;50.758;6.096;2022-09-03T06:07:15;1.00;;;0.70;;
43042;SDS011;28667;50.758;6.096;2022-09-03T06:09:42;0.80;;;0.80;;
43042;SDS011;28667;50.758;6.096;2022-09-03T06:12:08;1.13;;;0.68;;
43042;SDS011;28667;50.758;6.096;2022-09-03T06:14:34;0.68;;;0.68;;
43042;SDS011;28667;50.758;6.096;2022-09-03T06:17:00;1.50;;;1.05;;
43042;SDS011;28667;50.758;6.096;2022-09-03T06:19:26;0.82;;;0.60;;
43042;SDS011;28667;50.758;6.096;2022-09-03T06:21:52;1.20;;;0.70;;
43042;SDS011;28667;50.758;6.096;2022-09-03T06:24:19;1.27;;;0.75;;
43042;SDS011;28667;50.758;6.096;2022-09-03T06:26:49;0.70;;;0.65;;
43042;SDS011;28667;50.758;6.096;2022-09-03T06:29:16;0.95;;;0.82;;
43042;SDS011;28667;50.758;6.096;2022-09-03T06:31:43;0.68;;;0.68;;
43042;SDS011;28667;50.758;6.096;2022-09-03T06:34:09;1.13;;;0.70;;
43042;SDS011;28667;50.758;6.096;2022-09-03T06:36:35;0.70;;;0.70;;
43042;SDS011;28667;50.758;6.096;2022-09-03T06:39:01;1.48;;;0.50;;
43042;SDS011;28667;50.758;6.096;2022-09-03T06:41:28;2.63;;;1.00;;
43042;SDS011;28667;50.758;6.096;2022-09-03T06:44:00;0.77;;;0.77;;
43042;SDS011;28667;50.758;6.096;2022-09-03T06:46:29;2.53;;;0.80;;
43042;SDS011;28667;50.758;6.096;2022-09-03T06:48:57;1.02;;;0.93;;
43042;SDS011;28667;50.758;6.096;2022-09-03T06:51:24;0.40;;;0.40;;
43042;SDS011;28667;50.758;6.096;2022-09-03T06:53:53;1.25;;;0.80;;
43042;SDS011;28667;50.758;6.096;2022-09-03T06:56:23;0.80;;;0.80;;
43042;SDS011;28667;50.758;6.096;2022-09-03T06:58:55;0.70;;;0.63;;
43042;SDS011;28667;50.758;6.096;2022-09-03T07:01:23;0.73;;;0.70;;
43042;SDS011;28667;50.758;6.096;2022-09-03T07:03:52;0.50;;;0.40;;
43042;SDS011;28667;50.758;6.096;2022-09-03T07:06:23;0.60;;;0.60;;
43042;SDS011;28667;50.758;6.096;2022-09-03T07:08:52;3.10;;;0.90;;
43042;SDS011;28667;50.758;6.096;2022-09-03T07:11:19;1.70;;;0.80;;
43042;SDS011;28667;50.758;6.096;2022-09-03T07:13:50;1.77;;;0.70;;
43042;SDS011;28667;50.758;6.096;2022-09-03T07:18:45;0.88;;;0.80;;
43042;SDS011;28667;50.758;6.096;2022-09-03T07:21:13;1.38;;;0.82;;
43042;SDS011;28667;50.758;6.096;2022-09-03T07:23:41;3.35;;;0.82;;
43042;SDS011;28667;50.758;6.096;2022-09-03T07:26:10;1.00;;;0.77;;
43042;SDS011;28667;50.758;6.096;2022-09-03T07:28:39;1.63;;;0.90;;
43042;SDS011;28667;50.758;6.096;2022-09-03T07:31:11;0.73;;;0.73;;
43042;SDS011;28667;50.758;6.096;2022-09-03T07:33:40;0.88;;;0.73;;
43042;SDS011;28667;50.758;6.096;2022-09-03T07:36:08;1.70;;;0.88;;
43042;SDS011;28667;50.758;6.096;2022-09-03T07:38:36;1.00;;;0.90;;
43042;SDS011;28667;50.758;6.096;2022-09-03T07:41:04;1.27;;;0.82;;
43042;SDS011;28667;50.758;6.096;2022-09-03T07:43:33;1.20;;;0.88;;
43042;SDS011;28667;50.758;6.096;2022-09-03T07:46:12;0.88;;;0.88;;
43042;SDS011;28667;50.758;6.096;2022-09-03T07:48:51;1.33;;;0.68;;
43042;SDS011;28667;50.758;6.096;2022-09-03T07:51:20;1.02;;;0.80;;
43042;SDS011;28667;50.758;6.096;2022-09-03T07:53:51;0.93;;;0.68;;
43042;SDS011;28667;50.758;6.096;2022-09-03T07:56:22;1.15;;;0.77;;
43042;SDS011;28667;50.758;6.096;2022-09-03T07:58:49;0.65;;;0.65;;
43042;SDS011;28667;50.758;6.096;2022-09-03T08:01:16;1.95;;;0.85;;
43042;SDS011;28667;50.758;6.096;2022-09-03T08:03:46;0.60;;;0.60;;
43042;SDS011;28667;50.758;6.096;2022-09-03T08:06:15;1.10;;;0.80;;
43042;SDS011;28667;50.758;6.096;2022-09-03T08:08:43;1.67;;;0.90;;
43042;SDS011;28667;50.758;6.096;2022-09-03T08:11:16;0.95;;;0.95;;
43042;SDS011;28667;50.758;6.096;2022-09-03T08:13:54;0.80;;;0.80;;
43042;SDS011;28667;50.758;6.096;2022-09-03T08:16:27;1.17;;;0.80;;
43042;SDS011;28667;50.758;6.096;2022-09-03T08:18:55;1.20;;;1.10;;
43042;SDS011;28667;50.758;6.096;2022-09-03T08:21:21;3.72;;;0.90;;
43042;SDS011;28667;50.758;6.096;2022-09-03T08:23:49;3.58;;;1.05;;
43042;SDS011;28667;50.758;6.096;2022-09-03T08:26:18;1.27;;;1.17;;
43042;SDS011;28667;50.758;6.096;2022-09-03T08:28:45;0.73;;;0.70;;
43042;SDS011;28667;50.758;6.096;2022-09-03T08:31:16;1.10;;;0.95;;
43042;SDS011;28667;50.758;6.096;2022-09-03T08:33:44;0.75;;;0.70;;
43042;SDS011;28667;50.758;6.096;2022-09-03T08:36:13;1.00;;;0.98;;
43042;SDS011;28667;50.758;6.096;2022-09-03T08:38:42;1.65;;;1.05;;
43042;SDS011;28667;50.758;6.096;2022-09-03T08:49:16;1.52;;;1.00;;
43042;SDS011;28667;50.758;6.096;2022-09-03T08:51:51;0.98;;;0.90;;
43042;SDS011;28667;50.758;6.096;2022-09-03T08:54:22;1.10;;;1.00;;
43042;SDS011;28667;50.758;6.096;2022-09-03T08:56:54;1.20;;;1.10;;
43042;SDS011;28667;50.758;6.096;2022-09-03T08:59:23;0.95;;;0.80;;
43042;SDS011;28667;50.758;6.096;2022-09-03T09:07:19;3.17;;;1.30;;
43042;SDS011;28667;50.758;6.096;2022-09-03T09:10:40;1.67;;;1.13;;
43042;SDS011;28667;50.758;6.096;2022-09-03T09:16:05;1.10;;;0.93;;
43042;SDS011;28667;50.758;6.096;2022-09-03T09:21:40;1.40;;;1.30;;
43042;SDS011;28667;50.758;6.096;2022-09-03T09:24:22;0.93;;;0.93;;
43042;SDS011;28667;50.758;6.096;2022-09-03T09:26:55;2.22;;;1.00;;
43042;SDS011;28667;50.758;6.096;2022-09-03T09:29:29;1.25;;;1.00;;
43042;SDS011;28667;50.758;6.096;2022-09-03T09:31:57;1.92;;;1.05;;
43042;SDS011;28667;50.758;6.096;2022-09-03T09:34:23;1.23;;;1.13;;
43042;SDS011;28667;50.758;6.096;2022-09-03T09:36:53;1.90;;;1.10;;
43042;SDS011;28667;50.758;6.096;2022-09-03T09:39:20;0.98;;;0.98;;
43042;SDS011;28667;50.758;6.096;2022-09-03T09:42:01;1.23;;;0.98;;
43042;SDS011;28667;50.758;6.096;2022-09-03T09:44:36;0.98;;;0.98;;
43042;SDS011;28667;50.758;6.096;2022-09-03T09:49:51;1.52;;;1.10;;
43042;SDS011;28667;50.758;6.096;2022-09-03T09:52:23;1.65;;;1.10;;
43042;SDS011;28667;50.758;6.096;2022-09-03T09:54:53;0.90;;;0.90;;
43042;SDS011;28667;50.758;6.096;2022-09-03T09:57:35;1.35;;;1.08;;
43042;SDS011;28667;50.758;6.096;2022-09-03T10:00:09;1.40;;;1.30;;
43042;SDS011;28667;50.758;6.096;2022-09-03T10:02:39;1.45;;;1.00;;
43042;SDS011;28667;50.758;6.096;2022-09-03T10:05:27;1.27;;;1.13;;
43042;SDS011;28667;50.758;6.096;2022-09-03T10:08:00;4.43;;;1.20;;
43042;SDS011;28667;50.758;6.096;2022-09-03T10:10:29;1.35;;;1.10;;
43042;SDS011;28667;50.758;6.096;2022-09-03T10:13:00;1.05;;;0.95;;
43042;SDS011;28667;50.758;6.096;2022-09-03T10:21:04;2.22;;;1.42;;
43042;SDS011;28667;50.758;6.096;2022-09-03T10:26:15;0.95;;;0.95;;
43042;SDS011;28667;50.758;6.096;2022-09-03T10:28:44;1.67;;;1.10;;
43042;SDS011;28667;50.758;6.096;2022-09-03T10:34:06;1.50;;;1.15;;
43042;SDS011;28667;50.758;6.096;2022-09-03T10:36:59;1.35;;;1.25;;
43042;SDS011;28667;50.758;6.096;2022-09-03T11:02:25;2.50;;;1.30;;
43042;SDS011;28667;50.758;6.096;2022-09-03T11:05:23;2.38;;;1.70;;
43042;SDS011;28667;50.758;6.096;2022-09-03T11:10:32;1.40;;;1.30;;
43042;SDS011;28667;50.758;6.096;2022-09-03T11:18:22;2.17;;;1.35;;
43042;SDS011;28667;50.758;6.096;2022-09-03T11:21:05;1.77;;;1.67;;
43042;SDS011;28667;50.758;6.096;2022-09-03T11:23:36;1.33;;;1.23;;
43042;SDS011;28667;50.758;6.096;2022-09-03T11:26:12;1.40;;;1.30;;
43042;SDS011;28667;50.758;6.096;2022-09-03T11:34:04;2.55;;;1.52;;
43042;SDS011;28667;50.758;6.096;2022-09-03T11:36:31;1.20;;;1.20;;
43042;SDS011;28667;50.758;6.096;2022-09-03T11:39:00;1.50;;;1.40;;
43042;SDS011;28667;50.758;6.096;2022-09-03T11:41:37;1.20;;;1.10;;
43042;SDS011;28667;50.758;6.096;2022-09-03T11:44:15;1.33;;;1.23;;
43042;SDS011;28667;50.758;6.096;2022-09-03T11:46:53;1.73;;;1.20;;
43042;SDS011;28667;50.758;6.096;2022-09-03T11:49:26;2.20;;;1.20;;
43042;SDS011;28667;50.758;6.096;2022-09-03T11:51:56;1.23;;;1.10;;
43042;SDS011;28667;50.758;6.096;2022-09-03T11:54:30;1.35;;;1.25;;
43042;SDS011;28667;50.758;6.096;2022-09-03T11:57:14;1.48;;;1.38;;
43042;SDS011;28667;50.758;6.096;2022-09-03T11:59:46;1.58;;;1.48;;
43042;SDS011;28667;50.758;6.096;2022-09-03T12:02:19;1.85;;;1.20;;
43042;SDS011;28667;50.758;6.096;2022-09-03T12:05:05;2.03;;;1.60;;
43042;SDS011;28667;50.758;6.096;2022-09-03T12:08:01;1.80;;;1.30;;
43042;SDS011;28667;50.758;6.096;2022-09-03T12:10:57;2.67;;;1.45;;
43042;SDS011;28667;50.758;6.096;2022-09-03T12:14:04;1.50;;;1.40;;
43042;SDS011;28667;50.758;6.096;2022-09-03T12:19:17;1.65;;;1.20;;
43042;SDS011;28667;50.758;6.096;2022-09-03T12:21:52;1.25;;;1.15;;
43042;SDS011;28667;50.758;6.096;2022-09-03T12:24:19;1.60;;;1.42;;
43042;SDS011;28667;50.758;6.096;2022-09-03T12:26:47;1.45;;;1.35;;
43042;SDS011;28667;50.758;6.096;2022-09-03T12:29:27;1.23;;;1.15;;
43042;SDS011;28667;50.758;6.096;2022-09-03T12:31:54;1.27;;;1.17;;
43042;SDS011;28667;50.758;6.096;2022-09-03T12:34:30;3.38;;;1.20;;
43042;SDS011;28667;50.758;6.096;2022-09-03T12:36:57;1.35;;;1.25;;
43042;SDS011;28667;50.758;6.096;2022-09-03T12:39:27;1.30;;;1.02;;
43042;SDS011;28667;50.758;6.096;2022-09-03T12:42:00;1.33;;;1.23;;
43042;SDS011;28667;50.758;6.096;2022-09-03T12:49:36;2.20;;;1.10;;
43042;SDS011;28667;50.758;6.096;2022-09-03T12:52:46;1.75;;;1.65;;
43042;SDS011;28667;50.758;6.096;2022-09-03T12:54:56;1.35;;;1.25;;
43042;SDS011;28667;50.758;6.096;2022-09-03T12:57:30;1.27;;;1.17;;
43042;SDS011;28667;50.758;6.096;2022-09-03T13:00:17;1.40;;;1.30;;
43042;SDS011;28667;50.758;6.096;2022-09-03T13:02:46;1.60;;;1.50;;
43042;SDS011;28667;50.758;6.096;2022-09-03T13:05:29;2.22;;;1.33;;
43042;SDS011;28667;50.758;6.096;2022-09-03T13:08:01;1.92;;;1.58;;
43042;SDS011;28667;50.758;6.096;2022-09-03T13:10:35;1.52;;;1.27;;
43042;SDS011;28667;50.758;6.096;2022-09-03T13:13:16;1.17;;;1.17;;
43042;SDS011;28667;50.758;6.096;2022-09-03T13:16:03;1.45;;;1.35;;
43042;SDS011;28667;50.758;6.096;2022-09-03T13:21:06;1.52;;;1.30;;
43042;SDS011;28667;50.758;6.096;2022-09-03T13:23:52;1.50;;;1.40;;
43042;SDS011;28667;50.758;6.096;2022-09-03T13:29:10;1.52;;;1.42;;
43042;SDS011;28667;50.758;6.096;2022-09-03T13:31:56;1.60;;;1.25;;
43042;SDS011;28667;50.758;6.096;2022-09-03T13:34:30;1.55;;;1.45;;
43042;SDS011;28667;50.758;6.096;2022-09-03T13:39:40;1.20;;;1.10;;
43042;SDS011;28667;50.758;6.096;2022-09-03T13:42:40;1.80;;;1.10;;
43042;SDS011;28667;50.758;6.096;2022-09-03T13:50:40;2.10;;;1.08;;
43042;SDS011;28667;50.758;6.096;2022-09-03T13:55:58;1.30;;;1.20;;
43042;SDS011;28667;50.758;6.096;2022-09-03T13:58:42;4.10;;;1.67;;
43042;SDS011;28667;50.758;6.096;2022-09-03T14:04:13;1.45;;;1.35;;
43042;SDS011;28667;50.758;6.096;2022-09-03T14:06:53;1.30;;;1.15;;
43042;SDS011;28667;50.758;6.096;2022-09-03T14:15:04;2.55;;;1.25;;
43042;SDS011;28667;50.758;6.096;2022-09-03T14:17:45;1.70;;;1.45;;
43042;SDS011;28667;50.758;6.096;2022-09-03T14:20:42;1.35;;;1.25;;
43042;SDS011;28667;50.758;6.096;2022-09-03T14:23:17;3.30;;;1.30;;
43042;SDS011;28667;50.758;6.096;2022-09-03T14:26:02;1.70;;;1.40;;
43042;SDS011;28667;50.758;6.096;2022-09-03T14:28:39;1.10;;;1.00;;
43042;SDS011;28667;50.758;6.096;2022-09-03T14:31:14;2.25;;;1.25;;
43042;SDS011;28667;50.758;6.096;2022-09-03T14:34:06;3.08;;;1.38;;
43042;SDS011;28667;50.758;6.096;2022-09-03T14:37:04;1.75;;;1.45;;
43042;SDS011;28667;50.758;6.096;2022-09-03T14:39:53;1.30;;;1.20;;
43042;SDS011;28667;50.758;6.096;2022-09-03T14:48:14;1.42;;;0.75;;
43042;SDS011;28667;50.758;6.096;2022-09-03T14:56:49;1.30;;;0.90;;
43042;SDS011;28667;50.758;6.096;2022-09-03T14:59:47;2.45;;;2.10;;
43042;SDS011;28667;50.758;6.096;2022-09-03T15:07:53;1.83;;;1.30;;
43042;SDS011;28667;50.758;6.096;2022-09-03T15:20:53;1.83;;;1.52;;
43042;SDS011;28667;50.758;6.096;2022-09-03T15:23:44;1.25;;;1.15;;
43042;SDS011;28667;50.758;6.096;2022-09-03T15:26:32;1.38;;;1.27;;
43042;SDS011;28667;50.758;6.096;2022-09-03T15:34:53;1.85;;;1.42;;
43042;SDS011;28667;50.758;6.096;2022-09-03T15:37:42;1.60;;;1.50;;
43042;SDS011;28667;50.758;6.096;2022-09-03T15:43:03;1.50;;;1.05;;
43042;SDS011;28667;50.758;6.096;2022-09-03T15:48:20;1.70;;;1.17;;
43042;SDS011;28667;50.758;6.096;2022-09-03T15:50:52;2.22;;;1.20;;
43042;SDS011;28667;50.758;6.096;2022-09-03T15:56:00;1.65;;;1.55;;
43042;SDS011;28667;50.758;6.096;2022-09-03T16:01:49;1.50;;;1.40;;
43042;SDS011;28667;50.758;6.096;2022-09-03T16:15:25;1.10;;;1.00;;
43042;SDS011;28667;50.758;6.096;2022-09-03T16:20:47;0.50;;;0.50;;
43042;SDS011;28667;50.758;6.096;2022-09-03T16:23:22;1.23;;;0.63;;
43042;SDS011;28667;50.758;6.096;2022-09-03T16:26:06;0.77;;;0.77;;
43042;SDS011;28667;50.758;6.096;2022-09-03T16:28:45;0.50;;;0.50;;
43042;SDS011;28667;50.758;6.096;2022-09-03T16:39:06;1.55;;;0.95;;
43042;SDS011;28667;50.758;6.096;2022-09-03T16:41:46;0.70;;;0.70;;
43042;SDS011;28667;50.758;6.096;2022-09-03T16:44:26;0.90;;;0.90;;
43042;SDS011;28667;50.758;6.096;2022-09-03T16:47:28;1.02;;;1.00;;
43042;SDS011;28667;50.758;6.096;2022-09-03T16:58:19;1.30;;;1.00;;
43042;SDS011;28667;50.758;6.096;2022-09-03T17:09:33;1.98;;;1.48;;
43042;SDS011;28667;50.758;6.096;2022-09-03T17:12:14;2.03;;;1.75;;
43042;SDS011;28667;50.758;6.096;2022-09-03T17:20:19;1.20;;;1.10;;
43042;SDS011;28667;50.758;6.096;2022-09-03T17:25:39;1.38;;;1.27;;
43042;SDS011;28667;50.758;6.096;2022-09-03T17:28:26;1.50;;;1.40;;
43042;SDS011;28667;50.758;6.096;2022-09-03T17:34:08;3.33;;;1.48;;
43042;SDS011;28667;50.758;6.096;2022-09-03T17:39:37;1.33;;;1.20;;
43042;SDS011;28667;50.758;6.096;2022-09-03T17:42:13;1.33;;;1.23;;
43042;SDS011;28667;50.758;6.096;2022-09-03T17:45:02;1.30;;;1.20;;
43042;SDS011;28667;50.758;6.096;2022-09-03T17:50:47;1.40;;;1.30;;
43042;SDS011;28667;50.758;6.096;2022-09-03T17:53:17;1.60;;;1.50;;
43042;SDS011;28667;50.758;6.096;2022-09-03T17:55:54;0.98;;;0.88;;
43042;SDS011;28667;50.758;6.096;2022-09-03T17:58:33;1.20;;;1.10;;
43042;SDS011;28667;50.758;6.096;2022-09-03T18:03:29;1.45;;;1.35;;
43042;SDS011;28667;50.758;6.096;2022-09-03T18:06:18;1.88;;;1.48;;
43042;SDS011;28667;50.758;6.096;2022-09-03T18:11:40;1.80;;;1.27;;
43042;SDS011;28667;50.758;6.096;2022-09-03T18:16:53;1.48;;;1.38;;
43042;SDS011;28667;50.758;6.096;2022-09-03T18:21:59;1.77;;;1.40;;
43042;SDS011;28667;50.758;6.096;2022-09-03T18:24:53;1.83;;;1.55;;
43042;SDS011;28667;50.758;6.096;2022-09-03T18:27:43;2.20;;;1.60;;
43042;SDS011;28667;50.758;6.096;2022-09-03T18:30:32;1.95;;;1.30;;
43042;SDS011;28667;50.758;6.096;2022-09-03T18:33:26;2.08;;;1.80;;
43042;SDS011;28667;50.758;6.096;2022-09-03T18:36:11;1.65;;;1.55;;
43042;SDS011;28667;50.758;6.096;2022-09-03T18:48:15;1.50;;;1.40;;
43042;SDS011;28667;50.758;6.096;2022-09-03T18:57:07;2.28;;;1.60;;
43042;SDS011;28667;50.758;6.096;2022-09-03T19:00:12;1.73;;;1.45;;
43042;SDS011;28667;50.758;6.096;2022-09-03T19:09:04;2.38;;;1.38;;
43042;SDS011;28667;50.758;6.096;2022-09-03T19:15:24;1.95;;;1.60;;
43042;SDS011;28667;50.758;6.096;2022-09-03T19:21:38;1.58;;;1.13;;
43042;SDS011;28667;50.758;6.096;2022-09-03T19:24:29;0.90;;;0.90;;
43042;SDS011;28667;50.758;6.096;2022-09-03T19:27:32;1.15;;;0.95;;
43042;SDS011;28667;50.758;6.096;2022-09-03T19:31:17;1.42;;;1.33;;
43042;SDS011;28667;50.758;6.096;2022-09-03T19:55:06;2.08;;;1.05;;
43042;SDS011;28667;50.758;6.096;2022-09-03T19:57:54;1.50;;;1.40;;
43042;SDS011;28667;50.758;6.096;2022-09-03T20:00:43;1.38;;;1.27;;
43042;SDS011;28667;50.758;6.096;2022-09-03T20:03:29;3.72;;;1.30;;
43042;SDS011;28667;50.758;6.096;2022-09-03T20:06:14;1.55;;;1.40;;
43042;SDS011;28667;50.758;6.096;2022-09-03T20:09:04;1.30;;;1.20;;
43042;SDS011;28667;50.758;6.096;2022-09-03T20:11:53;1.60;;;1.20;;
43042;SDS011;28667;50.758;6.096;2022-09-03T20:14:23;1.48;;;1.35;;
43042;SDS011;28667;50.758;6.096;2022-09-03T20:19:31;0.88;;;0.88;;
43042;SDS011;28667;50.758;6.096;2022-09-03T20:22:10;1.73;;;1.02;;
43042;SDS011;28667;50.758;6.096;2022-09-03T20:30:46;1.40;;;1.20;;
43042;SDS011;28667;50.758;6.096;2022-09-03T20:41:57;1.60;;;1.20;;
43042;SDS011;28667;50.758;6.096;2022-09-03T20:52:35;1.83;;;1.45;;
43042;SDS011;28667;50.758;6.096;2022-09-03T20:55:31;1.23;;;1.15;;
43042;SDS011;28667;50.758;6.096;2022-09-03T21:00:51;1.38;;;1.27;;
43042;SDS011;28667;50.758;6.096;2022-09-03T21:03:42;2.13;;;1.75;;
43042;SDS011;28667;50.758;6.096;2022-09-03T21:09:52;1.73;;;1.45;;
43042;SDS011;28667;50.758;6.096;2022-09-03T21:12:47;1.38;;;1.27;;
43042;SDS011;28667;50.758;6.096;2022-09-03T21:15:27;2.20;;;1.58;;
43042;SDS011;28667;50.758;6.096;2022-09-03T21:24:18;1.85;;;1.40;;
43042;SDS011;28667;50.758;6.096;2022-09-03T21:27:00;1.60;;;1.50;;
43042;SDS011;28667;50.758;6.096;2022-09-03T21:29:31;1.45;;;1.20;;
43042;SDS011;28667;50.758;6.096;2022-09-03T21:34:52;1.27;;;1.15;;
43042;SDS011;28667;50.758;6.096;2022-09-03T21:37:20;1.20;;;1.10;;
43042;SDS011;28667;50.758;6.096;2022-09-03T21:39:52;1.10;;;0.82;;
43042;SDS011;28667;50.758;6.096;2022-09-03T21:47:36;1.40;;;1.15;;
43042;SDS011;28667;50.758;6.096;2022-09-03T21:55:17;1.25;;;1.10;;
43042;SDS011;28667;50.758;6.096;2022-09-03T21:57:52;2.72;;;1.00;;